sensor_id;sensor_type;location;lat;lon;timestamp;P1;durP1;ratioP1;P2;durP2;ratioP2
70426;SDS011;57872;55.432;37.248;2022-11-13T00:01:23;4.97;;;1.23;;
70426;SDS011;57872;55.432;37.248;2022-11-13T00:06:43;2.15;;;0.80;;
70426;SDS011;57872;55.432;37.248;2022-11-13T00:12:02;3.60;;;1.10;;
70426;SDS011;57872;55.432;37.248;2022-11-13T00:17:21;2.00;;;0.90;;
70426;SDS011;57872;55.432;37.248;2022-11-13T00:22:44;2.40;;;0.80;;
70426;SDS011;57872;55.432;37.248;2022-11-13T00:28:04;1.27;;;0.75;;
70426;SDS011;57872;55.432;37.248;2022-11-13T00:33:23;1.88;;;0.80;;
70426;SDS011;57872;55.432;37.248;2022-11-13T00:38:43;2.22;;;0.82;;
70426;SDS011;57872;55.432;37.248;2022-11-13T00:44:02;1.63;;;0.80;;
70426;SDS011;57872;55.432;37.248;2022-11-13T00:49:21;4.45;;;0.90;;
70426;SDS011;57872;55.432;37.248;2022-11-13T00:54:41;2.35;;;0.77;;
70426;SDS011;57872;55.432;37.248;2022-11-13T01:00:00;4.07;;;0.90;;
70426;SDS011;57872;55.432;37.248;2022-11-13T01:05:19;2.67;;;0.95;;
70426;SDS011;57872;55.432;37.248;2022-11-13T01:10:43;1.20;;;0.90;;
70426;SDS011;57872;55.432;37.248;2022-11-13T01:16:04;2.58;;;0.80;;
70426;SDS011;57872;55.432;37.248;2022-11-13T01:21:25;4.65;;;1.10;;
70426;SDS011;57872;55.432;37.248;2022-11-13T01:26:45;2.55;;;0.77;;
70426;SDS011;57872;55.432;37.248;2022-11-13T01:32:05;2.95;;;1.20;;
70426;SDS011;57872;55.432;37.248;2022-11-13T01:37:25;1.27;;;0.70;;
70426;SDS011;57872;55.432;37.248;2022-11-13T01:42:44;1.88;;;0.85;;
70426;SDS011;57872;55.432;37.248;2022-11-13T01:48:03;1.02;;;0.70;;
70426;SDS011;57872;55.432;37.248;2022-11-13T01:53:25;1.63;;;0.70;;
70426;SDS011;57872;55.432;37.248;2022-11-13T01:58:48;2.88;;;0.80;;
70426;SDS011;57872;55.432;37.248;2022-11-13T02:04:11;0.82;;;0.70;;
70426;SDS011;57872;55.432;37.248;2022-11-13T02:09:38;1.92;;;0.68;;
70426;SDS011;57872;55.432;37.248;2022-11-13T02:14:59;3.15;;;0.75;;
70426;SDS011;57872;55.432;37.248;2022-11-13T02:20:24;1.60;;;0.70;;
70426;SDS011;57872;55.432;37.248;2022-11-13T02:25:49;2.03;;;0.70;;
70426;SDS011;57872;55.432;37.248;2022-11-13T02:31:11;1.08;;;0.68;;
70426;SDS011;57872;55.432;37.248;2022-11-13T02:36:31;3.72;;;0.95;;
70426;SDS011;57872;55.432;37.248;2022-11-13T02:41:50;2.50;;;0.93;;
70426;SDS011;57872;55.432;37.248;2022-11-13T02:47:10;2.55;;;0.90;;
70426;SDS011;57872;55.432;37.248;2022-11-13T02:52:29;2.75;;;0.82;;
70426;SDS011;57872;55.432;37.248;2022-11-13T02:57:49;1.98;;;0.70;;
70426;SDS011;57872;55.432;37.248;2022-11-13T03:03:08;1.90;;;0.70;;
70426;SDS011;57872;55.432;37.248;2022-11-13T03:08:27;1.67;;;0.90;;
70426;SDS011;57872;55.432;37.248;2022-11-13T03:13:47;1.50;;;0.80;;
70426;SDS011;57872;55.432;37.248;2022-11-13T03:19:06;1.27;;;0.70;;
70426;SDS011;57872;55.432;37.248;2022-11-13T03:24:26;1.73;;;0.80;;
70426;SDS011;57872;55.432;37.248;2022-11-13T03:29:46;2.40;;;0.90;;
70426;SDS011;57872;55.432;37.248;2022-11-13T03:35:05;1.92;;;0.85;;
70426;SDS011;57872;55.432;37.248;2022-11-13T03:40:25;1.30;;;0.80;;
70426;SDS011;57872;55.432;37.248;2022-11-13T03:45:45;2.75;;;0.88;;
70426;SDS011;57872;55.432;37.248;2022-11-13T03:51:05;1.05;;;0.80;;
70426;SDS011;57872;55.432;37.248;2022-11-13T03:56:27;2.35;;;0.90;;
70426;SDS011;57872;55.432;37.248;2022-11-13T04:02:07;2.63;;;0.77;;
70426;SDS011;57872;55.432;37.248;2022-11-13T04:07:26;2.75;;;1.00;;
70426;SDS011;57872;55.432;37.248;2022-11-13T04:12:54;3.90;;;1.15;;
70426;SDS011;57872;55.432;37.248;2022-11-13T04:18:28;3.88;;;1.45;;
70426;SDS011;57872;55.432;37.248;2022-11-13T04:23:53;3.08;;;1.10;;
70426;SDS011;57872;55.432;37.248;2022-11-13T04:29:15;2.90;;;0.95;;
70426;SDS011;57872;55.432;37.248;2022-11-13T04:34:43;7.07;;;1.15;;
70426;SDS011;57872;55.432;37.248;2022-11-13T04:40:03;2.17;;;0.60;;
70426;SDS011;57872;55.432;37.248;2022-11-13T04:45:37;2.38;;;0.90;;
70426;SDS011;57872;55.432;37.248;2022-11-13T04:51:25;4.65;;;0.90;;
70426;SDS011;57872;55.432;37.248;2022-11-13T05:02:53;3.03;;;1.00;;
70426;SDS011;57872;55.432;37.248;2022-11-13T05:08:14;0.98;;;0.70;;
70426;SDS011;57872;55.432;37.248;2022-11-13T05:13:34;2.92;;;0.85;;
70426;SDS011;57872;55.432;37.248;2022-11-13T05:18:53;2.70;;;0.90;;
70426;SDS011;57872;55.432;37.248;2022-11-13T05:24:13;3.15;;;1.00;;
70426;SDS011;57872;55.432;37.248;2022-11-13T05:29:32;4.28;;;0.95;;
70426;SDS011;57872;55.432;37.248;2022-11-13T05:34:52;2.30;;;0.90;;
70426;SDS011;57872;55.432;37.248;2022-11-13T05:46:10;3.30;;;0.90;;
70426;SDS011;57872;55.432;37.248;2022-11-13T05:51:47;3.70;;;0.90;;
70426;SDS011;57872;55.432;37.248;2022-11-13T05:57:06;1.90;;;0.85;;
70426;SDS011;57872;55.432;37.248;2022-11-13T06:02:34;1.85;;;0.80;;
70426;SDS011;57872;55.432;37.248;2022-11-13T06:07:58;2.40;;;0.80;;
70426;SDS011;57872;55.432;37.248;2022-11-13T06:13:29;1.25;;;0.90;;
70426;SDS011;57872;55.432;37.248;2022-11-13T06:18:49;2.17;;;0.90;;
70426;SDS011;57872;55.432;37.248;2022-11-13T06:24:12;4.53;;;1.05;;
70426;SDS011;57872;55.432;37.248;2022-11-13T06:29:44;1.80;;;0.85;;
70426;SDS011;57872;55.432;37.248;2022-11-13T06:35:23;2.05;;;0.80;;
70426;SDS011;57872;55.432;37.248;2022-11-13T06:41:12;3.55;;;0.95;;
70426;SDS011;57872;55.432;37.248;2022-11-13T06:46:32;1.77;;;0.80;;
70426;SDS011;57872;55.432;37.248;2022-11-13T06:51:51;3.25;;;0.80;;
70426;SDS011;57872;55.432;37.248;2022-11-13T06:57:11;4.97;;;1.00;;
70426;SDS011;57872;55.432;37.248;2022-11-13T07:02:30;1.92;;;0.80;;
70426;SDS011;57872;55.432;37.248;2022-11-13T07:07:50;4.15;;;0.90;;
70426;SDS011;57872;55.432;37.248;2022-11-13T07:13:10;1.42;;;0.88;;
70426;SDS011;57872;55.432;37.248;2022-11-13T07:18:29;4.22;;;0.77;;
70426;SDS011;57872;55.432;37.248;2022-11-13T07:23:52;2.55;;;0.93;;
70426;SDS011;57872;55.432;37.248;2022-11-13T07:29:14;4.30;;;0.90;;
70426;SDS011;57872;55.432;37.248;2022-11-13T07:34:42;1.77;;;0.90;;
70426;SDS011;57872;55.432;37.248;2022-11-13T07:40:23;2.22;;;0.90;;
70426;SDS011;57872;55.432;37.248;2022-11-13T07:45:53;3.70;;;0.90;;
70426;SDS011;57872;55.432;37.248;2022-11-13T07:51:38;0.77;;;0.77;;
70426;SDS011;57872;55.432;37.248;2022-11-13T07:57:13;1.95;;;0.90;;
70426;SDS011;57872;55.432;37.248;2022-11-13T08:02:51;1.60;;;0.80;;
70426;SDS011;57872;55.432;37.248;2022-11-13T08:08:35;1.00;;;0.70;;
70426;SDS011;57872;55.432;37.248;2022-11-13T08:14:04;1.15;;;0.80;;
70426;SDS011;57872;55.432;37.248;2022-11-13T08:19:32;1.95;;;0.80;;
70426;SDS011;57872;55.432;37.248;2022-11-13T08:24:55;2.95;;;0.85;;
70426;SDS011;57872;55.432;37.248;2022-11-13T08:30:24;1.77;;;0.70;;
70426;SDS011;57872;55.432;37.248;2022-11-13T08:36:04;2.05;;;0.95;;
70426;SDS011;57872;55.432;37.248;2022-11-13T08:41:42;2.88;;;1.00;;
70426;SDS011;57872;55.432;37.248;2022-11-13T08:47:13;8.00;;;1.05;;
70426;SDS011;57872;55.432;37.248;2022-11-13T08:52:37;2.22;;;1.08;;
70426;SDS011;57872;55.432;37.248;2022-11-13T08:58:20;1.13;;;0.70;;
70426;SDS011;57872;55.432;37.248;2022-11-13T09:03:39;1.55;;;0.90;;
70426;SDS011;57872;55.432;37.248;2022-11-13T09:09:07;2.22;;;0.90;;
70426;SDS011;57872;55.432;37.248;2022-11-13T09:14:27;4.85;;;0.93;;
70426;SDS011;57872;55.432;37.248;2022-11-13T09:20:03;2.72;;;0.80;;
70426;SDS011;57872;55.432;37.248;2022-11-13T09:25:52;2.30;;;1.00;;
70426;SDS011;57872;55.432;37.248;2022-11-13T09:31:51;2.63;;;1.20;;
70426;SDS011;57872;55.432;37.248;2022-11-13T09:37:34;1.95;;;0.88;;
70426;SDS011;57872;55.432;37.248;2022-11-13T09:43:27;2.03;;;1.07;;
70426;SDS011;57872;55.432;37.248;2022-11-13T09:49:32;1.73;;;0.90;;
70426;SDS011;57872;55.432;37.248;2022-11-13T09:55:22;3.47;;;0.93;;
70426;SDS011;57872;55.432;37.248;2022-11-13T10:00:55;3.78;;;0.98;;
70426;SDS011;57872;55.432;37.248;2022-11-13T10:06:42;2.15;;;0.82;;
70426;SDS011;57872;55.432;37.248;2022-11-13T10:12:35;2.97;;;0.90;;
70426;SDS011;57872;55.432;37.248;2022-11-13T10:18:11;2.97;;;0.88;;
70426;SDS011;57872;55.432;37.248;2022-11-13T10:23:39;0.82;;;0.60;;
70426;SDS011;57872;55.432;37.248;2022-11-13T10:35:18;1.75;;;0.90;;
70426;SDS011;57872;55.432;37.248;2022-11-13T10:41:14;1.92;;;0.90;;
70426;SDS011;57872;55.432;37.248;2022-11-13T10:52:57;2.33;;;1.00;;
70426;SDS011;57872;55.432;37.248;2022-11-13T11:05:19;1.95;;;0.90;;
70426;SDS011;57872;55.432;37.248;2022-11-13T11:10:40;2.13;;;0.98;;
70426;SDS011;57872;55.432;37.248;2022-11-13T11:16:23;1.63;;;1.10;;
70426;SDS011;57872;55.432;37.248;2022-11-13T11:21:42;1.90;;;0.85;;
70426;SDS011;57872;55.432;37.248;2022-11-13T11:27:08;1.35;;;0.80;;
70426;SDS011;57872;55.432;37.248;2022-11-13T11:44:59;1.88;;;0.90;;
70426;SDS011;57872;55.432;37.248;2022-11-13T12:07:25;2.33;;;0.90;;
70426;SDS011;57872;55.432;37.248;2022-11-13T12:35:04;4.45;;;1.95;;
70426;SDS011;57872;55.432;37.248;2022-11-13T12:40:30;1.92;;;1.00;;
70426;SDS011;57872;55.432;37.248;2022-11-13T12:45:53;1.80;;;0.90;;
70426;SDS011;57872;55.432;37.248;2022-11-13T12:51:15;3.00;;;0.90;;
70426;SDS011;57872;55.432;37.248;2022-11-13T12:57:06;4.45;;;1.33;;
70426;SDS011;57872;55.432;37.248;2022-11-13T13:19:23;3.03;;;1.05;;
70426;SDS011;57872;55.432;37.248;2022-11-13T13:24:56;2.53;;;1.10;;
70426;SDS011;57872;55.432;37.248;2022-11-13T13:30:24;1.92;;;0.90;;
70426;SDS011;57872;55.432;37.248;2022-11-13T13:35:53;2.35;;;1.05;;
70426;SDS011;57872;55.432;37.248;2022-11-13T13:41:17;4.47;;;1.10;;
70426;SDS011;57872;55.432;37.248;2022-11-13T13:46:52;3.92;;;1.25;;
70426;SDS011;57872;55.432;37.248;2022-11-13T13:52:14;3.72;;;1.45;;
70426;SDS011;57872;55.432;37.248;2022-11-13T13:57:36;2.35;;;1.00;;
70426;SDS011;57872;55.432;37.248;2022-11-13T14:02:58;2.10;;;0.90;;
70426;SDS011;57872;55.432;37.248;2022-11-13T14:08:20;4.60;;;1.20;;
70426;SDS011;57872;55.432;37.248;2022-11-13T14:13:45;2.83;;;1.10;;
70426;SDS011;57872;55.432;37.248;2022-11-13T14:19:13;3.30;;;1.10;;
70426;SDS011;57872;55.432;37.248;2022-11-13T14:24:42;3.17;;;1.02;;
70426;SDS011;57872;55.432;37.248;2022-11-13T14:30:05;2.65;;;1.10;;
70426;SDS011;57872;55.432;37.248;2022-11-13T14:35:28;2.92;;;1.00;;
70426;SDS011;57872;55.432;37.248;2022-11-13T14:40:47;3.58;;;1.10;;
70426;SDS011;57872;55.432;37.248;2022-11-13T14:46:25;2.75;;;1.20;;
70426;SDS011;57872;55.432;37.248;2022-11-13T14:51:55;3.30;;;1.20;;
70426;SDS011;57872;55.432;37.248;2022-11-13T14:57:17;4.78;;;1.77;;
70426;SDS011;57872;55.432;37.248;2022-11-13T15:02:36;3.47;;;1.23;;
70426;SDS011;57872;55.432;37.248;2022-11-13T15:07:58;3.53;;;1.65;;
70426;SDS011;57872;55.432;37.248;2022-11-13T15:13:20;4.80;;;1.27;;
70426;SDS011;57872;55.432;37.248;2022-11-13T15:19:15;2.65;;;1.17;;
70426;SDS011;57872;55.432;37.248;2022-11-13T15:24:43;3.58;;;1.15;;
70426;SDS011;57872;55.432;37.248;2022-11-13T15:30:03;3.40;;;1.10;;
70426;SDS011;57872;55.432;37.248;2022-11-13T15:35:23;2.95;;;1.27;;
70426;SDS011;57872;55.432;37.248;2022-11-13T15:40:45;2.72;;;1.27;;
70426;SDS011;57872;55.432;37.248;2022-11-13T15:46:04;3.92;;;1.30;;
70426;SDS011;57872;55.432;37.248;2022-11-13T15:51:31;5.20;;;1.40;;
70426;SDS011;57872;55.432;37.248;2022-11-13T15:56:53;3.42;;;1.15;;
70426;SDS011;57872;55.432;37.248;2022-11-13T16:02:13;1.95;;;0.90;;
70426;SDS011;57872;55.432;37.248;2022-11-13T16:07:34;2.38;;;1.00;;
70426;SDS011;57872;55.432;37.248;2022-11-13T16:12:53;3.00;;;1.02;;
70426;SDS011;57872;55.432;37.248;2022-11-13T16:18:23;3.07;;;1.00;;
70426;SDS011;57872;55.432;37.248;2022-11-13T16:23:44;5.32;;;1.70;;
70426;SDS011;57872;55.432;37.248;2022-11-13T16:29:13;6.47;;;2.63;;
70426;SDS011;57872;55.432;37.248;2022-11-13T16:34:39;3.53;;;1.15;;
70426;SDS011;57872;55.432;37.248;2022-11-13T16:39:59;4.18;;;1.20;;
70426;SDS011;57872;55.432;37.248;2022-11-13T16:45:31;4.47;;;1.20;;
70426;SDS011;57872;55.432;37.248;2022-11-13T16:50:53;2.83;;;1.15;;
70426;SDS011;57872;55.432;37.248;2022-11-13T16:56:14;4.95;;;1.35;;
70426;SDS011;57872;55.432;37.248;2022-11-13T17:01:35;4.20;;;1.23;;
70426;SDS011;57872;55.432;37.248;2022-11-13T17:07:00;5.00;;;1.60;;
70426;SDS011;57872;55.432;37.248;2022-11-13T17:12:29;3.97;;;1.33;;
70426;SDS011;57872;55.432;37.248;2022-11-13T17:17:55;2.70;;;1.10;;
70426;SDS011;57872;55.432;37.248;2022-11-13T17:23:18;3.28;;;0.90;;
70426;SDS011;57872;55.432;37.248;2022-11-13T17:28:54;4.68;;;1.73;;
70426;SDS011;57872;55.432;37.248;2022-11-13T17:34:16;3.10;;;1.30;;
70426;SDS011;57872;55.432;37.248;2022-11-13T17:39:36;3.67;;;1.08;;
70426;SDS011;57872;55.432;37.248;2022-11-13T17:45:02;4.97;;;1.33;;
70426;SDS011;57872;55.432;37.248;2022-11-13T17:50:34;2.70;;;1.13;;
70426;SDS011;57872;55.432;37.248;2022-11-13T17:56:13;3.60;;;1.57;;
70426;SDS011;57872;55.432;37.248;2022-11-13T18:01:35;3.63;;;1.20;;
70426;SDS011;57872;55.432;37.248;2022-11-13T18:07:01;3.20;;;1.20;;
70426;SDS011;57872;55.432;37.248;2022-11-13T18:12:23;3.90;;;1.20;;
70426;SDS011;57872;55.432;37.248;2022-11-13T18:17:42;4.47;;;1.40;;
70426;SDS011;57872;55.432;37.248;2022-11-13T18:23:02;3.87;;;1.40;;
70426;SDS011;57872;55.432;37.248;2022-11-13T18:28:22;4.00;;;1.40;;
70426;SDS011;57872;55.432;37.248;2022-11-13T18:33:42;4.80;;;1.50;;
70426;SDS011;57872;55.432;37.248;2022-11-13T18:39:02;3.23;;;1.10;;
70426;SDS011;57872;55.432;37.248;2022-11-13T18:44:27;3.53;;;1.30;;
70426;SDS011;57872;55.432;37.248;2022-11-13T18:49:57;3.47;;;1.20;;
70426;SDS011;57872;55.432;37.248;2022-11-13T18:55:20;2.50;;;1.10;;
70426;SDS011;57872;55.432;37.248;2022-11-13T19:01:09;3.50;;;1.10;;
70426;SDS011;57872;55.432;37.248;2022-11-13T19:06:57;3.60;;;1.30;;
70426;SDS011;57872;55.432;37.248;2022-11-13T19:12:26;2.60;;;1.13;;
70426;SDS011;57872;55.432;37.248;2022-11-13T19:17:49;4.03;;;1.50;;
70426;SDS011;57872;55.432;37.248;2022-11-13T19:23:11;3.33;;;1.23;;
70426;SDS011;57872;55.432;37.248;2022-11-13T19:28:31;3.63;;;1.20;;
70426;SDS011;57872;55.432;37.248;2022-11-13T19:33:57;2.97;;;1.10;;
70426;SDS011;57872;55.432;37.248;2022-11-13T19:39:29;3.80;;;1.15;;
70426;SDS011;57872;55.432;37.248;2022-11-13T19:50:37;3.53;;;1.30;;
70426;SDS011;57872;55.432;37.248;2022-11-13T19:55:57;4.43;;;1.67;;
70426;SDS011;57872;55.432;37.248;2022-11-13T20:01:20;4.50;;;1.43;;
70426;SDS011;57872;55.432;37.248;2022-11-13T20:06:44;4.07;;;1.40;;
70426;SDS011;57872;55.432;37.248;2022-11-13T20:12:04;5.13;;;1.83;;
70426;SDS011;57872;55.432;37.248;2022-11-13T20:17:26;7.80;;;1.40;;
70426;SDS011;57872;55.432;37.248;2022-11-13T20:22:45;3.77;;;1.40;;
70426;SDS011;57872;55.432;37.248;2022-11-13T20:28:05;4.23;;;1.43;;
70426;SDS011;57872;55.432;37.248;2022-11-13T20:33:24;4.63;;;1.50;;
70426;SDS011;57872;55.432;37.248;2022-11-13T20:38:47;3.87;;;1.30;;
70426;SDS011;57872;55.432;37.248;2022-11-13T20:44:13;4.20;;;1.50;;
70426;SDS011;57872;55.432;37.248;2022-11-13T20:49:33;3.87;;;1.23;;
70426;SDS011;57872;55.432;37.248;2022-11-13T20:54:53;4.27;;;1.43;;
70426;SDS011;57872;55.432;37.248;2022-11-13T21:00:13;3.77;;;1.37;;
70426;SDS011;57872;55.432;37.248;2022-11-13T21:05:43;2.87;;;1.27;;
70426;SDS011;57872;55.432;37.248;2022-11-13T21:11:06;4.10;;;1.43;;
70426;SDS011;57872;55.432;37.248;2022-11-13T21:16:46;4.20;;;1.30;;
70426;SDS011;57872;55.432;37.248;2022-11-13T21:22:30;3.07;;;1.20;;
70426;SDS011;57872;55.432;37.248;2022-11-13T21:27:51;4.17;;;1.53;;
70426;SDS011;57872;55.432;37.248;2022-11-13T21:33:11;4.57;;;1.57;;
70426;SDS011;57872;55.432;37.248;2022-11-13T21:38:31;4.30;;;1.60;;
70426;SDS011;57872;55.432;37.248;2022-11-13T21:49:16;4.60;;;1.60;;
70426;SDS011;57872;55.432;37.248;2022-11-13T21:54:36;4.90;;;1.40;;
70426;SDS011;57872;55.432;37.248;2022-11-13T21:59:55;4.77;;;1.30;;
70426;SDS011;57872;55.432;37.248;2022-11-13T22:05:17;4.43;;;1.40;;
70426;SDS011;57872;55.432;37.248;2022-11-13T22:10:37;4.07;;;1.33;;
70426;SDS011;57872;55.432;37.248;2022-11-13T22:15:57;4.70;;;1.67;;
70426;SDS011;57872;55.432;37.248;2022-11-13T22:21:16;4.13;;;1.30;;
70426;SDS011;57872;55.432;37.248;2022-11-13T22:26:37;2.90;;;1.20;;
70426;SDS011;57872;55.432;37.248;2022-11-13T22:31:57;3.67;;;1.30;;
70426;SDS011;57872;55.432;37.248;2022-11-13T22:37:17;2.70;;;1.00;;
70426;SDS011;57872;55.432;37.248;2022-11-13T22:42:36;3.57;;;1.13;;
70426;SDS011;57872;55.432;37.248;2022-11-13T22:47:56;3.77;;;1.13;;
70426;SDS011;57872;55.432;37.248;2022-11-13T22:53:15;2.67;;;1.00;;
70426;SDS011;57872;55.432;37.248;2022-11-13T22:58:37;2.80;;;1.20;;
70426;SDS011;57872;55.432;37.248;2022-11-13T23:03:58;4.00;;;1.20;;
70426;SDS011;57872;55.432;37.248;2022-11-13T23:09:18;4.17;;;1.30;;
70426;SDS011;57872;55.432;37.248;2022-11-13T23:14:37;4.00;;;1.20;;
70426;SDS011;57872;55.432;37.248;2022-11-13T23:20:00;3.27;;;1.20;;
70426;SDS011;57872;55.432;37.248;2022-11-13T23:25:20;3.57;;;1.17;;
70426;SDS011;57872;55.432;37.248;2022-11-13T23:30:42;6.00;;;1.30;;
70426;SDS011;57872;55.432;37.248;2022-11-13T23:36:01;3.50;;;1.17;;
70426;SDS011;57872;55.432;37.248;2022-11-13T23:41:32;3.47;;;1.20;;
70426;SDS011;57872;55.432;37.248;2022-11-13T23:46:51;3.93;;;1.13;;
70426;SDS011;57872;55.432;37.248;2022-11-13T23:52:11;3.47;;;1.30;;
70426;SDS011;57872;55.432;37.248;2022-11-13T23:57:30;3.83;;;1.20;;
